createdAt,value
2022-10-25T00:01:27.814Z,8.98
2022-10-25T00:03:54.655Z,7.40
2022-10-25T00:06:21.820Z,5.63
2022-10-25T00:08:48.591Z,8.65
2022-10-25T00:11:23.831Z,7.65
2022-10-25T00:13:51.553Z,9.10
2022-10-25T00:16:21.300Z,6.33
2022-10-25T00:18:48.372Z,8.02
2022-10-25T00:21:14.930Z,6.18
2022-10-25T00:23:41.610Z,5.38
2022-10-25T00:26:09.808Z,5.88
2022-10-25T00:28:36.646Z,12.15
2022-10-25T00:31:08.230Z,7.15
2022-10-25T00:33:36.619Z,6.35
2022-10-25T00:36:08.300Z,9.80
2022-10-25T00:38:35.315Z,9.68
2022-10-25T00:41:02.677Z,7.78
2022-10-25T00:43:39.744Z,9.43
2022-10-25T00:46:19.792Z,5.20
2022-10-25T00:49:03.099Z,6.97
2022-10-25T00:51:41.988Z,7.95
2022-10-25T00:54:11.506Z,9.70
2022-10-25T00:56:40.092Z,13.10
2022-10-25T01:01:34.731Z,10.27
2022-10-25T01:04:05.001Z,13.75
2022-10-25T01:06:37.384Z,10.73
2022-10-25T01:09:04.520Z,8.88
2022-10-25T01:11:31.060Z,10.85
2022-10-25T01:13:57.819Z,12.10
2022-10-25T01:16:48.672Z,9.05
2022-10-25T01:19:27.524Z,9.90
2022-10-25T01:21:57.712Z,11.75
2022-10-25T01:24:45.479Z,12.73
2022-10-25T01:27:41.748Z,10.35
2022-10-25T01:30:26.213Z,12.00
2022-10-25T01:33:11.329Z,10.52
2022-10-25T01:36:04.202Z,12.90
2022-10-25T01:38:43.020Z,15.90
2022-10-25T01:41:23.225Z,16.70
2022-10-25T01:44:12.650Z,13.63
2022-10-25T01:47:00.483Z,15.00
2022-10-25T01:49:37.715Z,12.70
2022-10-25T01:52:04.418Z,16.95
2022-10-25T01:54:31.121Z,17.15
2022-10-25T01:57:09.984Z,17.17
2022-10-25T01:59:43.277Z,16.25
2022-10-25T02:02:17.908Z,16.23
2022-10-25T02:05:06.072Z,13.68
2022-10-25T02:07:42.061Z,11.80
2022-10-25T02:10:20.952Z,14.73
2022-10-25T02:13:02.900Z,16.02
2022-10-25T02:15:37.554Z,10.75
2022-10-25T02:18:06.351Z,11.65
2022-10-25T02:20:35.365Z,14.95
2022-10-25T02:23:04.578Z,13.55
2022-10-25T02:25:34.159Z,15.15
2022-10-25T02:28:03.991Z,10.90
2022-10-25T02:30:32.840Z,15.40
2022-10-25T02:32:59.607Z,19.60
2022-10-25T02:35:26.182Z,14.32
2022-10-25T02:37:52.806Z,14.73
2022-10-25T02:40:19.622Z,12.57
2022-10-25T02:42:46.175Z,13.20
2022-10-25T02:45:12.796Z,11.88
2022-10-25T02:47:39.402Z,15.63
2022-10-25T02:50:06.317Z,11.35
2022-10-25T02:52:32.901Z,12.70
2022-10-25T02:54:59.465Z,15.93
2022-10-25T02:57:26.043Z,16.23
2022-10-25T02:59:52.600Z,12.07
2022-10-25T03:02:19.174Z,13.38
2022-10-25T03:04:45.831Z,21.83
2022-10-25T03:07:12.429Z,12.23
2022-10-25T03:09:38.962Z,14.10
2022-10-25T03:12:05.560Z,21.48
2022-10-25T03:14:32.106Z,12.65
2022-10-25T03:16:58.679Z,14.07
2022-10-25T03:19:25.247Z,12.25
2022-10-25T03:21:51.834Z,12.57
2022-10-25T03:24:18.443Z,13.77
2022-10-25T03:26:45.041Z,16.27
2022-10-25T03:29:11.652Z,15.30
2022-10-25T03:31:38.293Z,13.68
2022-10-25T03:34:04.831Z,11.80
2022-10-25T03:36:31.413Z,15.23
2022-10-25T03:38:58.047Z,10.20
2022-10-25T03:41:24.694Z,9.00
2022-10-25T03:43:51.281Z,12.57
2022-10-25T03:46:17.889Z,14.27
2022-10-25T03:48:44.450Z,13.52
2022-10-25T03:51:11.024Z,11.25
2022-10-25T03:53:37.547Z,10.48
2022-10-25T03:56:04.199Z,9.30
2022-10-25T03:58:30.727Z,15.82
2022-10-25T04:00:57.324Z,12.82
2022-10-25T04:03:24.243Z,10.40
2022-10-25T04:05:50.796Z,12.80
2022-10-25T04:08:17.356Z,9.80
2022-10-25T04:10:44.119Z,11.70
2022-10-25T04:13:10.669Z,12.40
2022-10-25T04:15:38.639Z,10.88
2022-10-25T04:18:05.514Z,14.35
2022-10-25T04:20:32.093Z,13.10
2022-10-25T04:22:58.654Z,14.52
2022-10-25T04:25:26.836Z,10.75
2022-10-25T04:27:53.598Z,7.90
2022-10-25T04:30:20.409Z,10.05
2022-10-25T04:32:47.301Z,14.00
2022-10-25T04:35:14.097Z,13.45
2022-10-25T04:37:40.639Z,14.52
2022-10-25T04:40:07.940Z,9.38
2022-10-25T04:42:35.103Z,15.25
2022-10-25T04:45:01.849Z,13.90
2022-10-25T04:47:31.554Z,14.20
2022-10-25T04:49:58.431Z,14.27
2022-10-25T04:52:25.110Z,12.18
2022-10-25T04:54:51.689Z,12.48
2022-10-25T04:57:18.244Z,11.10
2022-10-25T04:59:44.810Z,10.95
2022-10-25T05:02:12.470Z,9.60
2022-10-25T05:04:39.036Z,9.77
2022-10-25T05:07:05.596Z,12.93
2022-10-25T05:09:32.130Z,11.45
2022-10-25T05:11:58.673Z,13.63
2022-10-25T05:14:25.258Z,19.30
2022-10-25T05:16:51.848Z,11.93
2022-10-25T05:19:18.471Z,15.25
2022-10-25T05:21:44.991Z,11.85
2022-10-25T05:24:11.536Z,16.13
2022-10-25T05:26:38.156Z,9.77
2022-10-25T05:29:09.994Z,10.38
2022-10-25T05:31:38.640Z,12.70
2022-10-25T05:34:05.231Z,15.02
2022-10-25T05:36:33.444Z,8.10
2022-10-25T05:39:01.144Z,11.40
2022-10-25T05:41:30.701Z,9.20
2022-10-25T05:44:00.185Z,13.70
2022-10-25T05:46:27.026Z,11.13
2022-10-25T05:48:53.809Z,12.93
2022-10-25T05:51:34.229Z,10.80
2022-10-25T05:54:07.743Z,9.75
2022-10-25T05:56:35.107Z,12.02
2022-10-25T05:59:08.874Z,12.40
2022-10-25T06:01:40.179Z,8.82
2022-10-25T06:04:07.643Z,7.57
2022-10-25T06:06:35.251Z,9.00
2022-10-25T06:09:02.078Z,10.73
2022-10-25T06:11:28.933Z,17.80
2022-10-25T06:13:55.566Z,13.45
2022-10-25T06:16:22.573Z,8.55
2022-10-25T06:18:49.645Z,11.52
2022-10-25T06:21:18.268Z,11.38
2022-10-25T06:26:16.477Z,7.93
2022-10-25T06:28:43.613Z,13.85
2022-10-25T06:31:12.729Z,9.07
2022-10-25T06:33:39.777Z,7.32
2022-10-25T06:36:09.289Z,13.30
2022-10-25T06:38:35.877Z,9.43
2022-10-25T06:41:04.360Z,9.50
2022-10-25T06:43:31.691Z,10.35
2022-10-25T06:45:58.325Z,12.93
2022-10-25T06:48:24.964Z,14.68
2022-10-25T06:51:05.663Z,12.27
2022-10-25T06:53:32.930Z,10.32
2022-10-25T06:56:04.994Z,12.77
2022-10-25T06:58:34.278Z,10.98
2022-10-25T07:01:02.586Z,9.45
2022-10-25T07:03:34.758Z,9.43
2022-10-25T07:06:11.306Z,9.50
2022-10-25T07:08:43.034Z,13.93
2022-10-25T07:11:15.189Z,11.18
2022-10-25T07:13:42.236Z,11.85
2022-10-25T07:16:10.800Z,8.27
2022-10-25T07:21:06.787Z,12.07
2022-10-25T07:23:33.998Z,12.73
2022-10-25T07:26:00.813Z,13.95
2022-10-25T07:28:27.448Z,12.15
2022-10-25T07:30:54.199Z,7.93
2022-10-25T07:33:21.229Z,7.53
2022-10-25T07:36:05.995Z,14.07
2022-10-25T07:38:35.860Z,9.63
2022-10-25T07:41:02.447Z,9.30
2022-10-25T07:43:29.433Z,10.45
2022-10-25T07:45:56.304Z,8.13
2022-10-25T07:48:23.466Z,13.73
2022-10-25T07:50:50.064Z,13.85
2022-10-25T07:53:16.654Z,9.02
2022-10-25T07:55:43.249Z,10.93
2022-10-25T07:58:11.356Z,7.00
2022-10-25T08:00:38.142Z,10.27
2022-10-25T08:03:04.837Z,11.55
2022-10-25T08:05:31.442Z,13.10
2022-10-25T08:07:58.057Z,9.77
2022-10-25T08:10:24.597Z,10.80
2022-10-25T08:12:51.471Z,7.65
2022-10-25T08:15:18.600Z,9.90
2022-10-25T08:17:45.451Z,10.50
2022-10-25T08:20:12.317Z,6.47
2022-10-25T08:22:39.116Z,7.07
2022-10-25T08:25:06.304Z,15.13
2022-10-25T08:27:32.885Z,13.98
2022-10-25T08:29:59.504Z,11.27
2022-10-25T08:32:26.104Z,13.52
2022-10-25T08:34:52.660Z,9.75
2022-10-25T08:37:19.337Z,16.63
2022-10-25T08:39:45.887Z,8.50
2022-10-25T08:42:23.301Z,10.60
2022-10-25T08:44:57.843Z,13.02
2022-10-25T08:47:35.198Z,10.95
2022-10-25T08:50:11.742Z,9.13
2022-10-25T08:52:56.248Z,8.65
2022-10-25T08:55:31.709Z,9.57
2022-10-25T08:57:59.522Z,15.90
2022-10-25T09:00:31.972Z,11.70
2022-10-25T09:03:00.192Z,8.60
2022-10-25T09:05:40.052Z,5.65
2022-10-25T09:08:15.712Z,9.57
2022-10-25T09:11:18.322Z,15.13
2022-10-25T09:13:54.903Z,10.88
2022-10-25T09:16:33.583Z,11.07
2022-10-25T09:19:01.157Z,9.05
2022-10-25T09:21:31.270Z,8.77
2022-10-25T09:24:01.347Z,8.90
2022-10-25T09:26:27.844Z,10.43
2022-10-25T09:29:02.672Z,9.70
2022-10-25T09:31:32.877Z,9.68
2022-10-25T09:34:06.225Z,17.17
2022-10-25T09:36:46.745Z,10.00
2022-10-25T09:39:22.241Z,7.65
2022-10-25T09:41:53.146Z,10.52
2022-10-25T09:44:40.009Z,7.30
2022-10-25T09:47:21.755Z,11.13
2022-10-25T09:50:01.982Z,8.68
2022-10-25T09:52:33.804Z,8.93
2022-10-25T09:55:16.088Z,13.70
2022-10-25T09:57:42.979Z,20.08
2022-10-25T10:00:14.161Z,7.38
2022-10-25T10:02:41.396Z,8.82
2022-10-25T10:05:19.947Z,9.75
2022-10-25T10:10:18.099Z,7.88
2022-10-25T10:12:56.650Z,6.55
2022-10-25T10:15:27.233Z,10.35
2022-10-25T10:18:26.319Z,10.07
2022-10-25T10:21:06.662Z,6.45
2022-10-25T10:23:45.726Z,6.72
2022-10-25T10:26:34.127Z,8.15
2022-10-25T10:31:43.139Z,10.65
2022-10-25T10:34:44.097Z,10.40
2022-10-25T10:37:20.585Z,4.55
2022-10-25T10:40:00.115Z,6.03
2022-10-25T10:45:02.431Z,7.47
2022-10-25T10:47:34.765Z,11.80
2022-10-25T10:50:02.308Z,11.40
2022-10-25T10:52:37.001Z,7.03
2022-10-25T10:55:03.989Z,7.63
2022-10-25T10:57:32.820Z,5.65
2022-10-25T11:00:01.336Z,8.55
2022-10-25T11:05:23.864Z,9.48
2022-10-25T11:08:02.252Z,10.43
2022-10-25T11:10:31.079Z,13.23
2022-10-25T11:13:16.803Z,8.65
2022-10-25T11:16:23.091Z,8.18
2022-10-25T11:19:27.835Z,11.07
2022-10-25T11:22:10.380Z,5.60
2022-10-25T11:25:03.188Z,5.28
2022-10-25T11:27:38.624Z,8.88
2022-10-25T11:30:22.777Z,6.20
2022-10-25T11:33:05.741Z,3.83
2022-10-25T11:35:42.187Z,5.93
2022-10-25T11:38:20.852Z,3.17
2022-10-25T11:41:16.716Z,8.25
2022-10-25T11:44:12.552Z,8.75
2022-10-25T11:46:48.137Z,4.93
2022-10-25T11:49:34.791Z,3.92
2022-10-25T11:52:22.538Z,2.83
2022-10-25T11:55:04.369Z,8.02
2022-10-25T11:57:44.116Z,7.07
2022-10-25T12:00:16.927Z,9.27
2022-10-25T12:03:05.791Z,6.70
2022-10-25T12:05:44.773Z,6.20
2022-10-25T12:08:42.535Z,8.02
2022-10-25T12:11:18.743Z,8.80
2022-10-25T12:13:48.456Z,12.00
2022-10-25T12:16:17.160Z,9.32
2022-10-25T12:18:46.231Z,8.40
2022-10-25T12:21:18.471Z,4.43
2022-10-25T12:23:50.812Z,11.55
2022-10-25T12:26:33.409Z,4.30
2022-10-25T12:29:03.167Z,5.20
2022-10-25T12:31:39.053Z,6.93
2022-10-25T12:34:40.580Z,5.80
2022-10-25T12:37:31.311Z,4.28
2022-10-25T12:39:57.987Z,10.90
2022-10-25T12:42:49.474Z,9.82
2022-10-25T12:45:33.766Z,6.40
2022-10-25T12:48:26.559Z,9.10
2022-10-25T12:51:14.035Z,3.92
2022-10-25T12:54:08.829Z,6.95
2022-10-25T12:56:56.346Z,3.42
2022-10-25T12:59:44.265Z,5.23
2022-10-25T13:02:32.776Z,5.22
2022-10-25T13:05:25.811Z,9.38
2022-10-25T13:07:55.239Z,7.78
2022-10-25T13:10:23.538Z,5.22
2022-10-25T13:13:18.531Z,5.63
2022-10-25T13:15:48.245Z,7.95
2022-10-25T13:18:32.892Z,3.38
2022-10-25T13:21:05.011Z,2.35
2022-10-25T13:23:44.092Z,6.38
2022-10-25T13:26:13.194Z,6.80
2022-10-25T13:28:57.547Z,6.75
2022-10-25T13:31:36.177Z,6.30
2022-10-25T13:34:11.820Z,9.48
2022-10-25T13:36:55.376Z,3.45
2022-10-25T13:39:38.364Z,5.15
2022-10-25T13:42:21.108Z,5.05
2022-10-25T13:44:50.628Z,9.93
2022-10-25T13:47:38.673Z,3.85
2022-10-25T13:50:41.749Z,4.13
2022-10-25T13:53:14.380Z,3.33
2022-10-25T13:55:46.701Z,4.45
2022-10-25T13:58:31.280Z,6.50
2022-10-25T14:01:18.837Z,4.90
2022-10-25T14:04:22.394Z,6.20
2022-10-25T14:06:49.229Z,5.82
2022-10-25T14:09:36.433Z,5.55
2022-10-25T14:12:03.484Z,5.60
2022-10-25T14:14:47.433Z,6.05
2022-10-25T14:17:31.920Z,10.43
2022-10-25T14:20:02.712Z,4.88
2022-10-25T14:22:46.836Z,7.75
2022-10-25T14:25:23.192Z,4.43
2022-10-25T14:27:49.940Z,5.35
2022-10-25T14:33:01.465Z,6.90
2022-10-25T14:35:35.043Z,4.80
2022-10-25T14:38:15.919Z,5.20
2022-10-25T14:40:42.540Z,2.92
2022-10-25T14:43:22.242Z,4.57
2022-10-25T14:46:16.331Z,3.45
2022-10-25T14:48:47.834Z,6.15
2022-10-25T14:51:21.900Z,3.83
2022-10-25T14:54:01.779Z,9.80
2022-10-25T14:56:46.595Z,5.97
2022-10-25T14:59:30.149Z,4.05
2022-10-25T15:02:00.541Z,11.00
2022-10-25T15:04:35.818Z,3.83
2022-10-25T15:07:02.813Z,5.68
2022-10-25T15:09:42.267Z,7.30
2022-10-25T15:12:16.001Z,4.30
2022-10-25T15:14:43.063Z,3.38
2022-10-25T15:17:17.261Z,4.32
2022-10-25T15:20:01.013Z,4.70
2022-10-25T15:23:01.060Z,3.20
2022-10-25T15:25:33.054Z,1.92
2022-10-25T15:28:13.142Z,4.18
2022-10-25T15:30:57.987Z,9.15
2022-10-25T15:33:32.218Z,7.63
2022-10-25T15:36:04.367Z,17.05
2022-10-25T15:38:54.468Z,5.78
2022-10-25T15:41:20.215Z,3.95
2022-10-25T15:43:46.779Z,3.05
2022-10-25T15:46:25.235Z,1.80
2022-10-25T15:51:18.999Z,4.22
2022-10-25T15:53:45.560Z,1.83
2022-10-25T15:56:13.759Z,2.70
2022-10-25T15:58:40.323Z,5.18
2022-10-25T16:01:07.227Z,4.53
2022-10-25T16:03:33.960Z,4.38
2022-10-25T16:06:00.959Z,5.18
2022-10-25T16:08:27.634Z,5.90
2022-10-25T16:10:54.446Z,2.17
2022-10-25T16:13:30.436Z,5.05
2022-10-25T16:15:57.033Z,3.95
2022-10-25T16:20:58.024Z,3.38
2022-10-25T16:23:25.631Z,4.45
2022-10-25T16:25:53.552Z,6.07
2022-10-25T16:28:20.313Z,6.90
2022-10-25T16:30:47.487Z,11.32
2022-10-25T16:33:14.631Z,8.27
2022-10-25T16:35:41.656Z,8.77
2022-10-25T16:40:37.254Z,4.85
2022-10-25T16:43:05.259Z,5.72
2022-10-25T16:45:39.782Z,3.33
2022-10-25T16:48:06.656Z,5.72
2022-10-25T16:50:33.876Z,3.58
2022-10-25T16:53:02.446Z,3.97
2022-10-25T16:57:57.776Z,4.20
2022-10-25T17:00:24.779Z,4.88
2022-10-25T17:02:51.647Z,6.28
2022-10-25T17:05:26.020Z,5.68
2022-10-25T17:07:52.585Z,9.70
2022-10-25T17:10:19.954Z,6.35
2022-10-25T17:12:50.736Z,7.53
2022-10-25T17:15:18.433Z,6.18
2022-10-25T17:17:46.659Z,10.27
2022-10-25T17:22:41.364Z,7.63
2022-10-25T17:25:09.123Z,7.95
2022-10-25T17:27:38.133Z,6.75
2022-10-25T17:30:06.072Z,8.48
2022-10-25T17:32:32.643Z,7.40
2022-10-25T17:34:59.251Z,8.65
2022-10-25T17:37:25.902Z,7.20
2022-10-25T17:39:52.504Z,8.35
2022-10-25T17:42:20.251Z,5.88
2022-10-25T17:44:47.022Z,9.80
2022-10-25T17:47:14.949Z,5.30
2022-10-25T17:49:42.637Z,8.32
2022-10-25T17:52:09.843Z,4.93
2022-10-25T17:54:38.530Z,7.82
2022-10-25T17:57:05.923Z,15.93
2022-10-25T17:59:33.115Z,17.60
2022-10-25T18:01:59.823Z,25.23
2022-10-25T18:04:26.471Z,21.30
2022-10-25T18:06:53.129Z,15.90
2022-10-25T18:09:19.710Z,9.55
2022-10-25T18:11:46.302Z,8.43
2022-10-25T18:14:12.916Z,7.53
2022-10-25T18:16:41.394Z,8.13
2022-10-25T18:19:12.339Z,10.23
2022-10-25T18:21:38.959Z,10.60
2022-10-25T18:24:05.690Z,11.55
2022-10-25T18:26:32.927Z,11.80
2022-10-25T18:28:59.732Z,13.80
2022-10-25T18:31:27.226Z,10.75
2022-10-25T18:33:59.160Z,10.20
2022-10-25T18:36:27.464Z,12.98
2022-10-25T18:38:54.768Z,14.05
2022-10-25T18:41:26.776Z,14.23
2022-10-25T18:43:54.926Z,13.77
2022-10-25T18:46:21.904Z,10.55
2022-10-25T18:48:52.757Z,7.90
2022-10-25T18:51:20.847Z,8.43
2022-10-25T18:53:47.859Z,10.15
2022-10-25T18:56:19.532Z,9.82
2022-10-25T18:58:47.968Z,12.75
2022-10-25T19:01:17.299Z,8.93
2022-10-25T19:03:44.463Z,9.65
2022-10-25T19:06:11.154Z,10.27
2022-10-25T19:08:38.400Z,8.38
2022-10-25T19:11:06.765Z,12.38
2022-10-25T19:13:33.804Z,10.00
2022-10-25T19:16:00.786Z,12.05
2022-10-25T19:18:28.921Z,8.50
2022-10-25T19:21:03.470Z,8.23
2022-10-25T19:23:30.607Z,10.30
2022-10-25T19:25:57.300Z,12.30
2022-10-25T19:28:23.832Z,11.55
2022-10-25T19:30:50.391Z,12.32
2022-10-25T19:33:16.955Z,9.98
2022-10-25T19:35:43.531Z,15.77
2022-10-25T19:38:10.080Z,9.77
2022-10-25T19:40:36.624Z,7.82
2022-10-25T19:43:03.280Z,7.03
2022-10-25T19:45:29.876Z,10.23
2022-10-25T19:47:58.117Z,11.40
2022-10-25T19:50:24.946Z,15.00
2022-10-25T19:52:51.852Z,15.55
2022-10-25T19:55:18.396Z,15.75
2022-10-25T19:57:45.170Z,15.77
2022-10-25T20:00:13.608Z,14.38
2022-10-25T20:05:07.868Z,17.25
2022-10-25T20:07:34.592Z,18.10
2022-10-25T20:10:01.124Z,15.00
2022-10-25T20:12:30.480Z,20.63
2022-10-25T20:14:57.597Z,17.63
2022-10-25T20:17:24.440Z,18.10
2022-10-25T20:19:51.000Z,16.77
2022-10-25T20:22:17.623Z,19.08
2022-10-25T20:24:44.187Z,17.83
2022-10-25T20:27:10.709Z,18.02
2022-10-25T20:29:37.386Z,15.75
2022-10-25T20:32:04.056Z,13.77
2022-10-25T20:34:30.755Z,15.40
2022-10-25T20:36:57.344Z,19.60
2022-10-25T20:39:23.917Z,13.90
2022-10-25T20:41:50.459Z,15.00
2022-10-25T20:44:17.008Z,13.05
2022-10-25T20:46:43.613Z,19.95
2022-10-25T20:49:10.256Z,14.32
2022-10-25T20:51:38.026Z,16.30
2022-10-25T20:54:09.474Z,15.30
2022-10-25T20:56:37.298Z,19.65
2022-10-25T20:59:04.308Z,13.55
2022-10-25T21:01:30.915Z,13.55
2022-10-25T21:03:57.629Z,16.23
2022-10-25T21:06:24.730Z,18.08
2022-10-25T21:08:51.321Z,20.13
2022-10-25T21:11:18.669Z,14.32
2022-10-25T21:13:45.234Z,20.58
2022-10-25T21:16:14.198Z,13.30
2022-10-25T21:18:41.396Z,16.52
2022-10-25T21:21:11.001Z,14.43
2022-10-25T21:23:37.625Z,12.57
2022-10-25T21:26:07.395Z,12.70
2022-10-25T21:28:35.966Z,14.95
2022-10-25T21:33:36.636Z,17.55
2022-10-25T21:36:08.591Z,14.95
2022-10-25T21:38:35.295Z,15.93
2022-10-25T21:41:07.812Z,14.43
2022-10-25T21:43:34.771Z,14.20
2022-10-25T21:46:04.735Z,12.85
2022-10-25T21:48:31.306Z,14.88
2022-10-25T21:51:00.463Z,15.10
2022-10-25T21:53:27.205Z,14.98
2022-10-25T21:56:10.868Z,13.18
2022-10-25T21:58:41.443Z,17.77
2022-10-25T22:01:13.675Z,13.45
2022-10-25T22:03:40.769Z,16.50
2022-10-25T22:06:12.089Z,17.80
2022-10-25T22:08:38.944Z,19.95
2022-10-25T22:11:08.305Z,17.23
2022-10-25T22:13:35.249Z,13.95
2022-10-25T22:16:07.192Z,14.63
2022-10-25T22:18:34.060Z,16.25
2022-10-25T22:21:03.545Z,13.90
2022-10-25T22:23:31.232Z,17.90
2022-10-25T22:26:02.891Z,18.90
2022-10-25T22:28:30.028Z,14.35
2022-10-25T22:31:02.035Z,12.60
2022-10-25T22:33:29.899Z,15.80
2022-10-25T22:38:36.946Z,15.00
2022-10-25T22:41:05.538Z,12.73
2022-10-25T22:46:01.388Z,15.90
2022-10-25T22:48:35.331Z,12.88
2022-10-25T22:51:02.097Z,16.10
2022-10-25T22:53:28.896Z,14.55
2022-10-25T22:56:06.806Z,18.60
2022-10-25T22:58:35.292Z,14.93
2022-10-25T23:01:06.634Z,15.27
2022-10-25T23:03:41.547Z,15.57
2022-10-25T23:06:11.189Z,16.23
2022-10-25T23:08:37.752Z,22.58
2022-10-25T23:11:05.867Z,21.48
2022-10-25T23:13:34.305Z,22.55
2022-10-25T23:16:01.749Z,14.60
2022-10-25T23:18:28.588Z,12.88
2022-10-25T23:20:57.056Z,18.00
2022-10-25T23:23:24.269Z,18.77
2022-10-25T23:25:51.359Z,13.77
2022-10-25T23:28:17.938Z,11.73
2022-10-25T23:30:44.637Z,12.23
2022-10-25T23:33:12.442Z,12.30
2022-10-25T23:35:40.451Z,13.55
2022-10-25T23:38:08.772Z,11.32
2022-10-25T23:40:35.319Z,11.73
2022-10-25T23:43:01.907Z,12.60
2022-10-25T23:45:28.626Z,12.93
2022-10-25T23:47:55.199Z,12.57
2022-10-25T23:50:21.818Z,14.75
2022-10-25T23:52:48.564Z,14.13
2022-10-25T23:55:15.512Z,12.32
2022-10-25T23:57:42.756Z,10.80
